Time;durP1;ratioP1;P1;durP2;ratioP2;P2;SDS_P1;SDS_P2;PMS_P1;PMS_P2;Temp;Humidity;BMP_temperature;BMP_pressure;BME280_temperature;BME280_humidity;BME280_pressure;Samples;Min_cycle;Max_cycle;Signal;HPM_P1;HPM_P2
2023/03/19 00:01:55;;;;;;;2.38;1.10;;;18.50;57.50;;;;;;6214967;23;20091;-71
2023/03/19 00:04:23;;;;;;;1.58;0.90;;;18.60;57.50;;;;;;6214948;23;20009;-72
2023/03/19 00:06:49;;;;;;;1.95;1.17;;;18.50;57.40;;;;;;6214945;23;19999;-71
2023/03/19 00:09:16;;;;;;;1.55;1.05;;;18.50;57.50;;;;;;6215252;23;20001;-71
2023/03/19 00:11:43;;;;;;;1.88;1.20;;;18.60;57.50;;;;;;6215243;23;20433;-71
2023/03/19 00:14:09;;;;;;;1.40;0.90;;;18.60;57.50;;;;;;6215287;23;20352;-71
2023/03/19 00:16:35;;;;;;;1.10;0.90;;;18.50;57.40;;;;;;6214896;23;20000;-71
2023/03/19 00:19:02;;;;;;;1.13;0.90;;;18.60;57.40;;;;;;6215258;23;20059;-70
2023/03/19 00:21:29;;;;;;;2.33;1.10;;;18.60;57.50;;;;;;6215211;23;20047;-70
2023/03/19 00:23:59;;;;;;;1.33;0.90;;;18.60;57.50;;;;;;6214770;23;20005;-71
2023/03/19 00:26:30;;;;;;;1.90;0.93;;;18.60;57.50;;;;;;6215120;23;19992;-71
2023/03/19 00:28:57;;;;;;;2.13;1.05;;;18.60;57.50;;;;;;6225084;23;20001;-71
2023/03/19 00:31:23;;;;;;;1.23;0.77;;;18.60;57.50;;;;;;6214778;23;20008;-70
2023/03/19 00:33:49;;;;;;;1.33;0.85;;;18.60;57.50;;;;;;6214804;23;19997;-81
2023/03/19 00:36:16;;;;;;;2.13;1.10;;;18.60;57.50;;;;;;6215187;23;19997;-81
2023/03/19 00:38:43;;;;;;;1.83;1.10;;;18.60;57.50;;;;;;6214909;23;20448;-81
2023/03/19 00:41:10;;;;;;;1.60;0.90;;;18.60;57.50;;;;;;6215021;23;20055;-80
2023/03/19 00:43:36;;;;;;;1.60;1.00;;;18.60;57.60;;;;;;6214580;23;20011;-81
2023/03/19 00:46:02;;;;;;;1.25;0.77;;;18.60;57.60;;;;;;6214685;23;20003;-82
2023/03/19 00:48:28;;;;;;;1.63;0.90;;;18.60;57.60;;;;;;6215052;23;20333;-81
2023/03/19 00:50:55;;;;;;;1.90;1.00;;;18.60;57.60;;;;;;6214307;23;20463;-81
2023/03/19 00:53:21;;;;;;;1.08;0.95;;;18.70;57.70;;;;;;6214564;23;20001;-81
2023/03/19 00:55:47;;;;;;;1.00;0.90;;;18.70;57.70;;;;;;6214704;23;20016;-81
2023/03/19 00:58:13;;;;;;;1.40;0.73;;;18.70;57.70;;;;;;6215007;23;20047;-81
2023/03/19 01:00:39;;;;;;;1.75;0.90;;;18.70;58.30;;;;;;6214974;23;20023;-81
2023/03/19 01:03:05;;;;;;;1.00;0.80;;;18.70;57.60;;;;;;6224301;23;20080;-81
2023/03/19 01:05:33;;;;;;;1.20;0.75;;;18.70;58.30;;;;;;6224660;23;20012;-81
2023/03/19 01:07:59;;;;;;;0.93;0.70;;;18.70;58.30;;;;;;6224869;23;20400;-81
2023/03/19 01:10:25;;;;;;;1.10;0.73;;;18.70;57.70;;;;;;6215034;23;20004;-81
2023/03/19 01:12:51;;;;;;;1.08;0.60;;;18.70;57.70;;;;;;6214746;23;20485;-81
2023/03/19 01:15:17;;;;;;;0.70;0.70;;;18.70;57.70;;;;;;6214917;23;20019;-81
2023/03/19 01:17:44;;;;;;;1.33;0.82;;;18.70;57.60;;;;;;6214701;23;19997;-81
2023/03/19 01:20:17;;;;;;;0.88;0.77;;;18.70;57.60;;;;;;6214952;23;20324;-81
2023/03/19 01:22:44;;;;;;;1.92;0.88;;;18.80;57.70;;;;;;6214780;23;20009;-81
2023/03/19 01:25:12;;;;;;;0.77;0.70;;;18.80;57.70;;;;;;6214449;23;19993;-81
2023/03/19 01:27:39;;;;;;;2.10;0.55;;;18.80;57.70;;;;;;6224523;23;20432;-81
2023/03/19 01:30:06;;;;;;;1.40;0.80;;;18.70;57.70;;;;;;6224784;23;19996;-81
2023/03/19 01:32:32;;;;;;;0.65;0.63;;;18.70;57.70;;;;;;6224406;23;20008;-81
2023/03/19 01:34:58;;;;;;;1.15;0.80;;;18.80;57.60;;;;;;6214829;23;20008;-81
2023/03/19 01:37:24;;;;;;;0.82;0.57;;;18.80;57.70;;;;;;6214693;23;20412;-81
2023/03/19 01:39:50;;;;;;;0.95;0.60;;;18.80;57.70;;;;;;6214329;23;20063;-81
2023/03/19 01:42:16;;;;;;;0.60;0.60;;;18.80;57.70;;;;;;6214475;23;20498;-81
2023/03/19 01:44:43;;;;;;;1.50;0.70;;;18.80;57.70;;;;;;6214833;23;19997;-81
2023/03/19 01:47:17;;;;;;;0.68;0.45;;;18.80;57.80;;;;;;6214847;23;19993;-81
2023/03/19 01:49:51;;;;;;;1.52;0.80;;;18.80;57.70;;;;;;6214672;23;20031;-81
2023/03/19 01:52:18;;;;;;;1.60;0.50;;;18.80;57.70;;;;;;6214391;23;19997;-82
2023/03/19 01:54:44;;;;;;;1.05;0.82;;;18.80;57.60;;;;;;6214277;23;19992;-81
2023/03/19 01:57:13;;;;;;;1.05;0.70;;;18.80;57.70;;;;;;6214677;23;20052;-81
2023/03/19 01:59:44;;;;;;;1.73;1.00;;;18.80;57.70;;;;;;6214301;23;19993;-81
2023/03/19 02:02:30;;;;;;;0.77;0.52;;;18.80;57.60;;;;;;6214436;23;20012;-81
2023/03/19 02:05:13;;;;;;;0.80;0.57;;;18.80;57.60;;;;;;6216839;23;20067;-81
2023/03/19 02:07:43;;;;;;;1.67;0.63;;;18.80;57.50;;;;;;6216759;23;19993;-81
2023/03/19 02:10:13;;;;;;;0.60;0.60;;;18.80;57.60;;;;;;6216670;23;19997;-81
2023/03/19 02:12:39;;;;;;;1.50;0.60;;;18.80;57.60;;;;;;6216650;23;19996;-81
2023/03/19 02:15:06;;;;;;;1.13;0.70;;;18.80;57.50;;;;;;6216637;23;20004;-81
2023/03/19 02:17:33;;;;;;;0.77;0.55;;;18.80;57.50;;;;;;6216637;23;20310;-80
2023/03/19 02:20:12;;;;;;;0.82;0.55;;;18.80;57.50;;;;;;6216626;23;19996;-81
2023/03/19 02:22:45;;;;;;;1.20;0.43;;;18.80;57.50;;;;;;6216608;23;20001;-81
2023/03/19 02:25:20;;;;;;;0.57;0.57;;;18.80;57.50;;;;;;6216525;23;20001;-81
2023/03/19 02:27:46;;;;;;;0.60;0.60;;;18.80;57.50;;;;;;6216142;23;20043;-80
2023/03/19 02:30:27;;;;;;;0.85;0.68;;;18.80;57.50;;;;;;6216177;23;20063;-81
2023/03/19 02:32:53;;;;;;;0.50;0.47;;;18.80;57.40;;;;;;6216065;23;19993;-81
2023/03/19 02:35:19;;;;;;;0.65;0.65;;;18.80;57.40;;;;;;6216273;23;20047;-81
2023/03/19 02:37:45;;;;;;;0.95;0.57;;;18.80;57.50;;;;;;6216291;23;20056;-81
2023/03/19 02:40:21;;;;;;;0.80;0.77;;;18.80;57.40;;;;;;6216391;23;20008;-81
2023/03/19 02:42:47;;;;;;;0.95;0.65;;;18.80;57.40;;;;;;6216229;23;20331;-82
2023/03/19 02:45:14;;;;;;;1.02;0.55;;;18.80;57.40;;;;;;6215878;23;20024;-81
2023/03/19 02:47:40;;;;;;;0.82;0.60;;;18.80;57.40;;;;;;6225905;23;20311;-82
2023/03/19 02:50:06;;;;;;;0.55;0.40;;;18.70;57.30;;;;;;6225996;23;19993;-81
2023/03/19 02:52:32;;;;;;;0.65;0.65;;;18.80;57.40;;;;;;6225939;23;20003;-82
2023/03/19 02:54:58;;;;;;;0.88;0.80;;;18.70;57.30;;;;;;6225925;23;19997;-81
2023/03/19 02:57:24;;;;;;;0.88;0.60;;;18.70;57.20;;;;;;6225795;23;20328;-82
2023/03/19 02:59:49;;;;;;;1.83;1.08;;;18.70;57.30;;;;;;6225867;23;20001;-81
2023/03/19 03:02:15;;;;;;;1.25;0.50;;;18.70;57.20;;;;;;6215523;23;20008;-81
2023/03/19 03:04:41;;;;;;;1.45;1.20;;;18.70;57.30;;;;;;6225827;23;20455;-81
2023/03/19 03:07:07;;;;;;;1.65;1.00;;;18.70;57.30;;;;;;6225728;23;20002;-81
2023/03/19 03:09:33;;;;;;;0.98;0.70;;;18.70;57.20;;;;;;6225871;23;19997;-81
2023/03/19 03:11:59;;;;;;;0.95;0.57;;;18.70;57.20;;;;;;6225888;23;19996;-80
2023/03/19 03:14:24;;;;;;;0.70;0.50;;;18.70;57.20;;;;;;6225394;23;20020;-81
2023/03/19 03:16:51;;;;;;;0.68;0.65;;;18.70;57.20;;;;;;6215566;23;20007;-81
2023/03/19 03:19:17;;;;;;;1.98;0.70;;;18.70;57.20;;;;;;6216051;23;19997;-81
2023/03/19 03:21:43;;;;;;;0.75;0.70;;;18.70;57.20;;;;;;6216108;23;20080;-81
2023/03/19 03:24:09;;;;;;;1.70;0.75;;;18.70;57.20;;;;;;6215737;23;20008;-81
2023/03/19 03:26:37;;;;;;;0.60;0.60;;;18.70;57.20;;;;;;6215870;23;20411;-81
2023/03/19 03:29:07;;;;;;;0.82;0.52;;;18.70;57.20;;;;;;6215767;23;19997;-81
2023/03/19 03:31:33;;;;;;;1.38;1.05;;;18.70;57.20;;;;;;6215986;23;19993;-81
2023/03/19 03:34:00;;;;;;;0.80;0.70;;;18.70;57.10;;;;;;6216039;23;20075;-81
2023/03/19 03:36:26;;;;;;;0.90;0.70;;;18.70;57.10;;;;;;6215578;23;19993;-81
2023/03/19 03:38:53;;;;;;;0.93;0.60;;;18.70;57.10;;;;;;6215832;23;20000;-82
2023/03/19 03:41:19;;;;;;;0.60;0.60;;;18.70;57.10;;;;;;6215740;23;20016;-82
2023/03/19 03:43:45;;;;;;;1.10;0.70;;;18.70;57.10;;;;;;6225747;23;20083;-82
2023/03/19 03:46:11;;;;;;;1.05;0.80;;;18.60;57.10;;;;;;6225470;23;20024;-82
2023/03/19 03:48:36;;;;;;;0.85;0.50;;;18.60;57.10;;;;;;6225459;23;19997;-82
2023/03/19 03:51:03;;;;;;;1.95;0.75;;;18.60;57.00;;;;;;6225415;23;20320;-82
2023/03/19 03:53:28;;;;;;;0.75;0.60;;;18.60;57.00;;;;;;6225352;23;20328;-81
2023/03/19 03:55:54;;;;;;;1.05;0.57;;;18.60;57.00;;;;;;6225477;23;19993;-82
2023/03/19 03:58:20;;;;;;;1.17;1.08;;;18.60;57.00;;;;;;6225432;23;20080;-82
2023/03/19 04:00:46;;;;;;;0.70;0.70;;;18.60;57.20;;;;;;6225367;23;19993;-82
2023/03/19 04:03:12;;;;;;;0.77;0.70;;;18.60;57.00;;;;;;6214892;23;20413;-82
2023/03/19 04:05:38;;;;;;;1.27;1.13;;;18.60;57.00;;;;;;6225292;23;19992;-82
2023/03/19 04:08:04;;;;;;;1.20;1.20;;;18.60;56.90;;;;;;6225060;23;19997;-82
2023/03/19 04:10:30;;;;;;;1.63;1.52;;;18.60;56.90;;;;;;6225060;23;19997;-82
2023/03/19 04:12:56;;;;;;;2.40;1.33;;;18.60;56.90;;;;;;6225130;23;20003;-82
2023/03/19 04:15:22;;;;;;;1.05;0.95;;;18.60;56.90;;;;;;6215413;23;20448;-81
2023/03/19 04:17:49;;;;;;;1.70;1.60;;;18.60;56.90;;;;;;6215021;23;20011;-81
2023/03/19 04:20:17;;;;;;;0.98;0.82;;;18.60;56.90;;;;;;6214836;23;19993;-81
2023/03/19 04:22:44;;;;;;;1.65;0.95;;;18.60;56.90;;;;;;6215243;23;20048;-81
2023/03/19 04:25:10;;;;;;;2.05;1.55;;;18.60;56.80;;;;;;6214846;23;20429;-81
2023/03/19 04:27:36;;;;;;;1.75;1.65;;;18.60;56.80;;;;;;6215169;23;20324;-81
2023/03/19 04:30:03;;;;;;;1.30;1.20;;;18.50;56.80;;;;;;6215161;23;20004;-81
2023/03/19 04:32:29;;;;;;;1.77;1.17;;;18.50;56.70;;;;;;6215318;23;19996;-82
2023/03/19 04:34:57;;;;;;;1.30;1.17;;;18.50;56.80;;;;;;6215167;23;20076;-81
2023/03/19 04:37:23;;;;;;;1.80;1.70;;;18.50;56.70;;;;;;6215077;23;19997;-82
2023/03/19 04:39:50;;;;;;;2.20;1.25;;;18.50;56.70;;;;;;6215245;23;20006;-82
2023/03/19 04:42:16;;;;;;;1.67;1.58;;;18.50;56.80;;;;;;6214999;23;19996;-81
2023/03/19 04:44:42;;;;;;;2.88;1.50;;;18.50;56.70;;;;;;6214730;23;20375;-81
2023/03/19 04:47:09;;;;;;;1.40;1.30;;;18.50;56.70;;;;;;6214677;23;19999;-82
2023/03/19 04:49:35;;;;;;;1.13;1.02;;;18.50;56.80;;;;;;6214834;23;20012;-83
2023/03/19 04:52:02;;;;;;;1.80;1.70;;;18.50;56.70;;;;;;6215209;23;19997;-81
2023/03/19 04:54:28;;;;;;;1.58;1.48;;;18.50;56.70;;;;;;6215042;23;20047;-82
2023/03/19 04:56:54;;;;;;;1.40;1.23;;;18.50;56.70;;;;;;6215164;23;20043;-82
2023/03/19 04:59:21;;;;;;;1.90;1.52;;;18.40;56.70;;;;;;6214485;23;19997;-81
2023/03/19 05:01:47;;;;;;;1.70;1.60;;;18.50;56.70;;;;;;6214694;23;19993;-81
2023/03/19 05:04:13;;;;;;;2.05;1.48;;;18.40;56.60;;;;;;6214493;23;20440;-81
2023/03/19 05:06:39;;;;;;;1.92;1.55;;;18.40;56.60;;;;;;6215010;23;19996;-81
2023/03/19 05:09:06;;;;;;;2.42;2.10;;;18.40;56.70;;;;;;6214602;23;20463;-81
2023/03/19 05:11:32;;;;;;;2.20;1.65;;;18.40;56.60;;;;;;6214868;23;20001;-82
2023/03/19 05:13:58;;;;;;;1.90;1.80;;;18.50;56.60;;;;;;6214883;23;20375;-82
2023/03/19 05:16:25;;;;;;;2.53;2.33;;;18.40;56.60;;;;;;6214332;23;20428;-83
2023/03/19 05:18:51;;;;;;;2.00;1.90;;;18.40;57.10;;;;;;6214527;23;20001;-82
2023/03/19 05:21:17;;;;;;;2.50;2.03;;;18.40;56.40;;;;;;6214778;23;20372;-82
2023/03/19 05:23:43;;;;;;;2.25;1.95;;;18.40;56.50;;;;;;6214390;23;20005;-82
2023/03/19 05:26:10;;;;;;;1.88;1.70;;;18.40;56.40;;;;;;6214957;23;20020;-81
2023/03/19 05:28:36;;;;;;;2.03;1.42;;;18.40;56.40;;;;;;6214616;23;20003;-82
2023/03/19 05:31:02;;;;;;;2.20;1.60;;;18.40;56.50;;;;;;6214749;23;20012;-82
2023/03/19 05:33:29;;;;;;;1.52;1.40;;;18.40;56.40;;;;;;6214664;23;20004;-82
2023/03/19 05:35:55;;;;;;;1.25;1.15;;;18.40;56.40;;;;;;6214395;23;19993;-82
2023/03/19 05:38:21;;;;;;;1.60;1.50;;;18.30;56.40;;;;;;6215299;23;20432;-82
2023/03/19 05:40:47;;;;;;;1.67;1.58;;;18.30;56.40;;;;;;6216668;23;20000;-82
2023/03/19 05:43:13;;;;;;;1.30;1.20;;;18.30;56.40;;;;;;6216688;23;20004;-82
2023/03/19 05:45:39;;;;;;;1.70;1.60;;;18.30;57.10;;;;;;6216867;23;19993;-81
2023/03/19 05:48:05;;;;;;;1.75;1.30;;;18.30;56.40;;;;;;6216796;23;20000;-82
2023/03/19 05:50:32;;;;;;;1.90;1.70;;;18.30;56.40;;;;;;6226420;23;20432;-82
2023/03/19 05:52:58;;;;;;;2.33;1.40;;;18.30;56.40;;;;;;6226515;23;20320;-82
2023/03/19 05:55:24;;;;;;;1.90;1.08;;;18.30;56.40;;;;;;6226325;23;19992;-82
2023/03/19 05:57:50;;;;;;;1.65;1.55;;;18.30;56.40;;;;;;6216366;23;20119;-81
2023/03/19 06:00:17;;;;;;;1.35;1.25;;;18.30;56.40;;;;;;6226400;23;20024;-82
2023/03/19 06:02:43;;;;;;;3.67;2.00;;;18.30;56.40;;;;;;6225884;23;20063;-81
2023/03/19 06:05:10;;;;;;;1.10;1.02;;;18.30;56.30;;;;;;6216357;23;19993;-82
2023/03/19 06:07:36;;;;;;;1.40;1.30;;;18.30;56.40;;;;;;6216712;23;20392;-82
2023/03/19 06:10:04;;;;;;;1.65;1.20;;;18.30;56.30;;;;;;6216590;23;20000;-82
2023/03/19 06:12:30;;;;;;;1.90;1.52;;;18.20;56.30;;;;;;6216506;23;20008;-82
2023/03/19 06:14:56;;;;;;;1.58;1.48;;;18.20;56.30;;;;;;6216443;23;20367;-82
2023/03/19 06:17:22;;;;;;;1.45;1.35;;;18.30;56.30;;;;;;6216024;23;20083;-82
2023/03/19 06:19:48;;;;;;;1.83;1.73;;;18.20;56.30;;;;;;6216041;23;19992;-82
2023/03/19 06:22:14;;;;;;;1.73;1.63;;;18.20;56.30;;;;;;6216547;23;20043;-82
2023/03/19 06:24:40;;;;;;;1.67;1.58;;;18.20;56.30;;;;;;6216385;23;20063;-81
2023/03/19 06:27:06;;;;;;;1.48;1.38;;;18.20;56.30;;;;;;6216524;23;20326;-81
2023/03/19 06:29:32;;;;;;;1.80;1.25;;;18.20;56.30;;;;;;6216194;23;20332;-81
2023/03/19 06:31:58;;;;;;;1.10;1.00;;;18.20;56.30;;;;;;6216337;23;19993;-81
2023/03/19 06:34:24;;;;;;;1.17;0.88;;;18.20;56.30;;;;;;6226119;23;19992;-82
2023/03/19 06:36:50;;;;;;;2.05;1.20;;;18.20;56.30;;;;;;6226109;23;20335;-82
2023/03/19 06:39:16;;;;;;;1.88;1.23;;;18.20;56.30;;;;;;6216347;23;20003;-81
2023/03/19 06:41:42;;;;;;;0.98;0.98;;;18.20;56.30;;;;;;6216373;23;20031;-81
2023/03/19 06:44:08;;;;;;;0.90;0.90;;;18.20;56.30;;;;;;6216266;23;20008;-82
2023/03/19 06:46:34;;;;;;;2.22;1.58;;;18.20;56.40;;;;;;6215941;23;20004;-82
2023/03/19 06:49:00;;;;;;;1.98;1.20;;;18.20;56.40;;;;;;6215276;23;20444;-82
2023/03/19 06:51:26;;;;;;;1.40;1.30;;;18.20;56.30;;;;;;6215765;23;20000;-82
2023/03/19 06:53:53;;;;;;;1.52;1.42;;;18.20;56.40;;;;;;6216173;23;19996;-82
2023/03/19 06:56:19;;;;;;;1.40;1.30;;;18.20;56.40;;;;;;6216236;23;20085;-82
2023/03/19 06:58:45;;;;;;;1.30;1.10;;;18.20;56.40;;;;;;6216303;23;20384;-81
2023/03/19 07:01:11;;;;;;;1.50;1.40;;;18.20;64.70;;;;;;6225727;23;20008;-81
2023/03/19 07:03:37;;;;;;;1.70;1.27;;;18.10;57.00;;;;;;6215535;23;20047;-81
2023/03/19 07:06:03;;;;;;;1.45;1.15;;;18.20;56.40;;;;;;6216132;23;20379;-81
2023/03/19 07:08:29;;;;;;;2.08;1.48;;;18.20;56.40;;;;;;6216053;23;20320;-81
2023/03/19 07:10:56;;;;;;;1.20;1.08;;;18.20;56.40;;;;;;6215685;23;20424;-81
2023/03/19 07:13:22;;;;;;;1.15;1.10;;;18.20;56.40;;;;;;6215995;23;20075;-81
2023/03/19 07:15:48;;;;;;;1.95;1.85;;;18.20;56.40;;;;;;6225653;23;20436;-82
2023/03/19 07:18:14;;;;;;;2.15;1.40;;;18.20;56.30;;;;;;6215834;23;20000;-82
2023/03/19 07:20:40;;;;;;;1.60;1.50;;;18.20;56.30;;;;;;6215661;23;19997;-82
2023/03/19 07:23:06;;;;;;;1.60;1.50;;;18.20;56.40;;;;;;6215448;23;20310;-81
2023/03/19 07:25:31;;;;;;;1.20;1.10;;;18.20;56.30;;;;;;6225579;23;20007;-81
2023/03/19 07:27:57;;;;;;;1.55;1.27;;;18.20;56.40;;;;;;6215772;23;20082;-81
2023/03/19 07:30:23;;;;;;;1.23;0.90;;;18.10;56.40;;;;;;6215501;23;20328;-82
2023/03/19 07:32:49;;;;;;;1.20;1.10;;;18.20;56.40;;;;;;6215770;23;20051;-81
2023/03/19 07:35:15;;;;;;;1.20;1.10;;;18.20;56.40;;;;;;6215909;23;20013;-81
2023/03/19 07:37:42;;;;;;;1.92;1.83;;;18.20;56.40;;;;;;6215904;23;20004;-81
2023/03/19 07:40:09;;;;;;;1.83;1.63;;;18.10;56.30;;;;;;6216059;23;20021;-81
2023/03/19 07:42:35;;;;;;;2.40;2.10;;;18.20;56.20;;;;;;6215583;23;20405;-80
2023/03/19 07:45:02;;;;;;;1.55;1.33;;;18.10;56.20;;;;;;6215929;23;20036;-81
2023/03/19 07:47:29;;;;;;;1.75;1.42;;;18.20;56.40;;;;;;6215362;23;19997;-81
2023/03/19 07:49:56;;;;;;;1.70;1.48;;;18.10;56.20;;;;;;6215541;23;20023;-81
2023/03/19 07:52:23;;;;;;;1.40;1.20;;;18.10;56.20;;;;;;6215342;23;20004;-82
2023/03/19 07:54:49;;;;;;;1.30;1.20;;;18.20;56.30;;;;;;6215355;23;19997;-82
2023/03/19 07:57:15;;;;;;;1.35;1.25;;;18.20;56.30;;;;;;6215596;23;20050;-82
2023/03/19 07:59:41;;;;;;;1.80;1.48;;;18.10;56.20;;;;;;6225206;23;20075;-82
2023/03/19 08:02:16;;;;;;;2.10;1.73;;;18.10;56.30;;;;;;6214997;23;20012;-82
2023/03/19 08:04:42;;;;;;;1.50;1.20;;;18.10;56.30;;;;;;6215637;23;20080;-84
2023/03/19 08:07:12;;;;;;;1.65;1.48;;;18.10;56.20;;;;;;6215411;23;20349;-77
2023/03/19 08:09:39;;;;;;;1.30;1.20;;;18.10;56.30;;;;;;6224980;23;20466;-80
2023/03/19 08:12:06;;;;;;;1.55;1.45;;;18.10;56.30;;;;;;6214794;23;20703;-84
2023/03/19 08:14:33;;;;;;;1.58;1.48;;;18.10;56.30;;;;;;6215120;23;19997;-79
2023/03/19 08:16:59;;;;;;;1.67;1.40;;;18.10;56.20;;;;;;6215087;23;20050;-78
2023/03/19 08:19:25;;;;;;;1.42;1.20;;;18.10;56.30;;;;;;6215154;23;20067;-78
2023/03/19 08:21:51;;;;;;;1.40;1.30;;;18.10;56.30;;;;;;6215451;23;20097;-78
2023/03/19 08:24:18;;;;;;;1.42;1.33;;;18.10;56.30;;;;;;6214838;23;20084;-77
2023/03/19 08:26:44;;;;;;;1.60;1.50;;;18.20;56.40;;;;;;6225297;23;20039;-84
2023/03/19 08:29:10;;;;;;;1.85;1.50;;;18.10;56.30;;;;;;6215238;23;20353;-75
2023/03/19 08:31:36;;;;;;;1.77;1.55;;;18.10;56.40;;;;;;6215412;23;19996;-76
2023/03/19 08:34:03;;;;;;;2.40;1.67;;;18.10;56.50;;;;;;6215013;23;20008;-77
2023/03/19 08:36:30;;;;;;;3.47;1.48;;;18.10;56.50;;;;;;6215101;23;20000;-76
2023/03/19 08:38:57;;;;;;;2.83;1.90;;;18.20;56.50;;;;;;6214944;23;20004;-77
2023/03/19 08:41:24;;;;;;;3.95;2.10;;;18.10;56.50;;;;;;6214853;23;20072;-78
2023/03/19 08:43:50;;;;;;;3.78;3.42;;;18.20;56.50;;;;;;6214999;23;20016;-76
2023/03/19 08:46:16;;;;;;;3.85;2.63;;;18.20;56.40;;;;;;6214771;23;20019;-76
2023/03/19 08:48:43;;;;;;;3.38;2.15;;;18.20;57.10;;;;;;6215050;23;20035;-76
2023/03/19 08:51:09;;;;;;;2.92;2.42;;;18.10;56.60;;;;;;6214906;23;19997;-76
2023/03/19 08:53:36;;;;;;;6.00;2.80;;;18.20;56.60;;;;;;6215795;23;20003;-72
2023/03/19 08:56:05;;;;;;;4.43;3.10;;;18.20;56.60;;;;;;6214507;23;20008;-78
2023/03/19 08:58:31;;;;;;;7.78;3.78;;;18.20;56.60;;;;;;6214674;23;20424;-78
2023/03/19 09:01:09;;;;;;;3.83;2.63;;;18.20;56.60;;;;;;6214440;23;19993;-76
2023/03/19 09:03:36;;;;;;;5.05;2.75;;;18.20;56.60;;;;;;6214359;23;20430;-81
2023/03/19 09:06:03;;;;;;;4.30;3.03;;;18.20;56.50;;;;;;6224422;23;20315;-80
2023/03/19 09:08:30;;;;;;;6.80;3.35;;;18.20;56.70;;;;;;6224641;23;20028;-70
2023/03/19 09:10:56;;;;;;;4.88;2.90;;;18.10;56.70;;;;;;6214310;23;20039;-72
2023/03/19 09:13:23;;;;;;;5.93;3.45;;;18.20;56.80;;;;;;6214456;23;20305;-70
2023/03/19 09:15:49;;;;;;;4.05;2.90;;;18.10;56.80;;;;;;6214383;23;19996;-72
2023/03/19 09:18:16;;;;;;;5.65;2.65;;;18.10;56.80;;;;;;6214652;23;20086;-72
2023/03/19 09:20:42;;;;;;;5.90;3.58;;;18.10;56.80;;;;;;6214343;23;19996;-72
2023/03/19 09:23:08;;;;;;;5.75;3.17;;;18.20;56.90;;;;;;6214463;23;20001;-72
2023/03/19 09:25:34;;;;;;;3.10;2.67;;;18.20;56.90;;;;;;6214625;23;20309;-71
2023/03/19 09:28:00;;;;;;;3.95;2.90;;;18.20;57.00;;;;;;6214442;23;20000;-72
2023/03/19 09:30:26;;;;;;;5.05;3.13;;;18.20;57.00;;;;;;6215034;23;20051;-72
2023/03/19 09:32:52;;;;;;;4.97;3.00;;;18.20;57.00;;;;;;6215573;23;20008;-71
2023/03/19 09:35:18;;;;;;;5.50;3.03;;;18.20;57.00;;;;;;6217574;23;20004;-69
2023/03/19 09:37:45;;;;;;;4.05;2.90;;;18.20;57.10;;;;;;6215907;23;19997;-72
2023/03/19 09:40:48;;;;;;;4.13;3.00;;;18.20;57.10;;;;;;6215270;23;20076;-71
2023/03/19 09:43:37;;;;;;;6.13;3.75;;;18.20;57.10;;;;;;6163536;23;20008;-72
2023/03/19 09:46:10;;;;;;;5.60;3.22;;;18.20;57.20;;;;;;6215773;23;20435;-72
2023/03/19 09:48:47;;;;;;;4.85;3.30;;;18.20;57.20;;;;;;6215511;23;19993;-72
2023/03/19 09:51:20;;;;;;;4.75;2.90;;;18.20;57.30;;;;;;6216150;23;20024;-70
2023/03/19 09:53:58;;;;;;;6.05;3.08;;;18.20;57.30;;;;;;6216353;23;19992;-71
2023/03/19 09:56:25;;;;;;;5.03;3.20;;;18.20;57.40;;;;;;6216591;23;19996;-71
2023/03/19 09:58:51;;;;;;;7.38;4.50;;;18.30;57.40;;;;;;6216643;23;20001;-72
2023/03/19 10:01:30;;;;;;;8.00;4.30;;;18.20;57.30;;;;;;6215876;23;20473;-72
2023/03/19 10:04:02;;;;;;;8.10;4.40;;;18.20;57.40;;;;;;6213983;23;20012;-71
2023/03/19 10:06:39;;;;;;;6.70;4.38;;;18.30;57.30;;;;;;6214016;23;20392;-70
2023/03/19 10:09:16;;;;;;;5.35;3.97;;;18.30;57.40;;;;;;6214530;23;20058;-70
2023/03/19 10:12:03;;;;;;;5.80;3.88;;;18.30;57.50;;;;;;6214542;23;20004;-70
2023/03/19 10:14:33;;;;;;;5.82;3.55;;;18.30;57.40;;;;;;6214507;23;20001;-70
2023/03/19 10:17:03;;;;;;;4.25;3.40;;;18.30;57.50;;;;;;6214309;23;20017;-72
2023/03/19 10:19:38;;;;;;;;;;;18.30;57.40;;;;;;6219740;23;20076;-74
2023/03/19 10:22:11;;;;;;;8.88;4.22;;;18.30;57.40;;;;;;6214257;23;19975;-71
2023/03/19 10:24:40;;;;;;;6.70;4.53;;;18.30;57.50;;;;;;6225334;23;20011;-74
2023/03/19 10:27:15;;;;;;;9.93;4.50;;;18.30;57.50;;;;;;6226090;23;19993;-72
2023/03/19 10:29:40;;;;;;;7.15;4.43;;;18.30;57.50;;;;;;6216168;23;19997;-72
2023/03/19 10:32:18;;;;;;;7.85;4.72;;;18.30;57.50;;;;;;6216235;23;20404;-71
2023/03/19 10:34:49;;;;;;;6.75;3.97;;;18.30;57.50;;;;;;6215822;23;20067;-72
2023/03/19 10:37:21;;;;;;;7.70;4.28;;;18.30;57.50;;;;;;6216252;23;19996;-72
2023/03/19 10:39:49;;;;;;;7.15;4.20;;;18.30;57.50;;;;;;6216327;23;20067;-72
2023/03/19 10:42:34;;;;;;;5.45;3.78;;;18.30;57.50;;;;;;6215924;23;20047;-72
2023/03/19 10:45:19;;;;;;;7.78;3.85;;;18.30;57.50;;;;;;6216265;23;20008;-73
2023/03/19 10:47:46;;;;;;;5.95;3.90;;;18.30;57.50;;;;;;6215687;23;19997;-73
2023/03/19 10:50:24;;;;;;;15.35;4.13;;;18.30;57.50;;;;;;6216126;23;20371;-73
2023/03/19 10:52:55;;;;;;;11.95;4.07;;;18.30;57.60;;;;;;6215742;23;20011;-74
2023/03/19 10:55:28;;;;;;;8.90;4.10;;;18.40;58.10;;;;;;6216105;23;20360;-73
2023/03/19 10:58:17;;;;;;;8.07;4.38;;;18.40;57.80;;;;;;6215745;23;20204;-73
2023/03/19 11:00:48;;;;;;;5.70;3.50;;;18.30;57.70;;;;;;6206287;23;20493;-73
2023/03/19 11:03:59;;;;;;;10.18;3.88;;;18.30;57.70;;;;;;6215269;23;20459;-73
2023/03/19 11:06:35;;;;;;;7.72;3.42;;;18.30;57.70;;;;;;6212525;23;20004;-73
2023/03/19 11:09:14;;;;;;;7.22;3.92;;;18.30;57.70;;;;;;6215943;23;20054;-73
2023/03/19 11:11:48;;;;;;;5.95;3.30;;;18.30;57.80;;;;;;6215894;23;20084;-77
2023/03/19 11:14:29;;;;;;;5.38;3.53;;;18.40;57.90;;;;;;6225511;23;20020;-74
2023/03/19 11:17:01;;;;;;;5.03;3.70;;;18.40;57.80;;;;;;6215500;23;20004;-72
2023/03/19 11:19:30;;;;;;;5.53;3.47;;;18.40;57.90;;;;;;6215954;23;20023;-73
2023/03/19 11:22:11;;;;;;;5.65;3.55;;;18.40;58.00;;;;;;6215211;23;19993;-73
2023/03/19 11:24:39;;;;;;;6.57;4.15;;;18.40;58.00;;;;;;6215100;23;20016;-73
2023/03/19 11:27:07;;;;;;;8.82;4.20;;;18.40;58.00;;;;;;6223635;23;19996;-73
2023/03/19 11:29:42;;;;;;;8.43;3.70;;;18.40;57.90;;;;;;6215196;23;19997;-72
2023/03/19 11:32:23;;;;;;;8.00;4.05;;;18.40;57.90;;;;;;6225475;23;19993;-72
2023/03/19 11:34:56;;;;;;;10.32;5.45;;;18.40;57.90;;;;;;6221925;23;20004;-72
2023/03/19 11:37:40;;;;;;;7.63;5.03;;;18.50;57.90;;;;;;6225273;23;20075;-74
2023/03/19 11:40:39;;;;;;;6.82;4.25;;;18.40;58.00;;;;;;6215250;23;20004;-73
2023/03/19 11:43:28;;;;;;;5.82;4.55;;;18.50;57.90;;;;;;6215388;23;20016;-73
2023/03/19 11:46:12;;;;;;;11.43;4.72;;;18.50;57.90;;;;;;6225411;23;20455;-72
2023/03/19 11:49:07;;;;;;;7.45;5.03;;;18.50;57.90;;;;;;6225209;23;20032;-73
2023/03/19 11:51:40;;;;;;;7.18;4.43;;;18.50;57.90;;;;;;6208183;23;19996;-73
2023/03/19 11:54:27;;;;;;;8.43;4.45;;;18.50;57.90;;;;;;6215494;23;20000;-75
2023/03/19 11:57:03;;;;;;;5.90;4.50;;;18.50;57.90;;;;;;6215054;23;20003;-76
2023/03/19 11:59:29;;;;;;;7.47;5.00;;;18.50;57.90;;;;;;6215465;23;20001;-77
2023/03/19 12:02:46;;;;;;;6.45;4.88;;;18.50;57.90;;;;;;6224910;23;20477;-75
2023/03/19 12:05:34;;;;;;;8.00;4.18;;;18.50;57.80;;;;;;6180758;23;20062;-77
2023/03/19 12:08:11;;;;;;;6.28;4.72;;;18.50;57.80;;;;;;6215384;23;20396;-76
2023/03/19 12:10:43;;;;;;;6.50;4.53;;;18.50;57.80;;;;;;6215375;23;19996;-75
2023/03/19 12:13:31;;;;;;;6.82;5.05;;;18.60;57.80;;;;;;6215340;23;20007;-73
2023/03/19 12:16:01;;;;;;;8.05;4.68;;;18.60;57.70;;;;;;6225048;23;20013;-73
2023/03/19 12:18:46;;;;;;;9.27;5.53;;;18.70;57.60;;;;;;6225038;23;20004;-72
2023/03/19 12:21:23;;;;;;;7.35;4.22;;;18.70;57.40;;;;;;6224950;23;19997;-72
2023/03/19 12:24:13;;;;;;;6.47;4.40;;;18.90;57.30;;;;;;6224912;23;20009;-73
2023/03/19 12:26:59;;;;;;;6.60;4.28;;;19.00;56.90;;;;;;6224920;23;20095;-72
2023/03/19 12:29:31;;;;;;;7.60;5.07;;;19.10;56.70;;;;;;6224858;23;20025;-72
2023/03/19 12:32:04;;;;;;;9.27;5.15;;;19.20;56.50;;;;;;6225024;23;20018;-73
2023/03/19 12:34:48;;;;;;;6.60;4.80;;;19.40;56.20;;;;;;6224969;23;19996;-73
2023/03/19 12:37:47;;;;;;;6.60;5.10;;;19.50;55.90;;;;;;6214947;23;20000;-73
2023/03/19 12:40:42;;;;;;;5.07;4.05;;;19.70;55.60;;;;;;6224674;23;20143;-72
2023/03/19 12:43:49;;;;;;;7.95;4.35;;;19.70;55.40;;;;;;6214854;23;20004;-73
2023/03/19 12:46:30;;;;;;;6.97;3.83;;;19.90;55.30;;;;;;6214894;23;19997;-74
2023/03/19 12:49:06;;;;;;;5.30;3.92;;;20.00;55.00;;;;;;6214484;23;19993;-71
2023/03/19 12:51:37;;;;;;;5.97;4.63;;;20.00;55.10;;;;;;6215017;23;20047;-73
2023/03/19 12:54:31;;;;;;;7.78;4.60;;;20.00;55.10;;;;;;6224787;23;19996;-73
2023/03/19 12:57:07;;;;;;;5.07;4.25;;;20.10;55.00;;;;;;6224628;23;20052;-73
2023/03/19 13:00:03;;;;;;;3.83;3.38;;;20.20;54.90;;;;;;6214739;23;19997;-73
2023/03/19 13:03:04;;;;;;;5.38;4.45;;;20.30;54.60;;;;;;6224069;23;20047;-73